createdAt,value
2019-01-14T00:00:23.691Z,99.90
2019-01-14T00:02:51.381Z,99.90
2019-01-14T00:05:18.891Z,99.90
2019-01-14T00:07:46.571Z,99.90
2019-01-14T00:10:14.065Z,99.90
2019-01-14T00:12:41.542Z,99.90
2019-01-14T00:15:09.601Z,99.90
2019-01-14T00:17:37.512Z,99.90
2019-01-14T00:20:06.427Z,99.90
2019-01-14T00:22:33.792Z,99.90
2019-01-14T00:25:01.692Z,99.90
2019-01-14T00:27:29.411Z,99.90
2019-01-14T00:29:56.956Z,99.90
2019-01-14T00:32:30.691Z,99.90
2019-01-14T00:34:58.087Z,99.90
2019-01-14T00:37:25.640Z,99.90
2019-01-14T00:39:53.861Z,99.90
2019-01-14T00:42:21.314Z,99.90
2019-01-14T00:44:48.692Z,99.90
2019-01-14T00:47:16.245Z,99.90
2019-01-14T00:49:43.753Z,99.90
2019-01-14T00:52:11.299Z,99.90
2019-01-14T00:54:38.729Z,99.90
2019-01-14T00:57:06.425Z,99.90
2019-01-14T00:59:33.937Z,99.90
2019-01-14T01:02:01.436Z,99.90
2019-01-14T01:04:29.186Z,99.90
2019-01-14T01:06:56.633Z,99.90
2019-01-14T01:09:24.108Z,99.90
2019-01-14T01:11:51.821Z,99.90
2019-01-14T01:14:19.424Z,99.90
2019-01-14T01:16:46.884Z,99.90
2019-01-14T01:19:14.419Z,99.90
2019-01-14T01:21:41.903Z,99.90
2019-01-14T01:24:09.373Z,99.90
2019-01-14T01:26:36.801Z,99.90
2019-01-14T01:29:04.599Z,99.90
2019-01-14T01:31:32.087Z,99.90
2019-01-14T01:33:59.674Z,99.90
2019-01-14T01:36:31.812Z,99.90
2019-01-14T01:38:56.342Z,99.90
2019-01-14T01:41:23.759Z,99.90
2019-01-14T01:43:51.441Z,99.90
2019-01-14T01:46:19.246Z,99.90
2019-01-14T01:48:47.049Z,99.90
2019-01-14T01:51:14.582Z,99.90
2019-01-14T01:53:42.118Z,99.90
2019-01-14T01:56:09.618Z,99.90
2019-01-14T01:58:37.460Z,99.90
2019-01-14T02:01:05.196Z,99.90
2019-01-14T02:03:32.874Z,99.90
2019-01-14T02:06:00.626Z,99.90
2019-01-14T02:08:28.182Z,99.90
2019-01-14T02:10:56.169Z,99.90
2019-01-14T02:13:24.026Z,99.90
2019-01-14T02:15:51.521Z,99.90
2019-01-14T02:18:19.250Z,99.90
2019-01-14T02:20:46.635Z,99.90
2019-01-14T02:23:14.622Z,99.90
2019-01-14T02:25:42.010Z,99.90
2019-01-14T02:28:09.443Z,99.90
2019-01-14T02:30:37.000Z,99.90
2019-01-14T02:33:04.890Z,99.90
2019-01-14T02:35:32.780Z,99.90
2019-01-14T02:38:00.442Z,99.90
2019-01-14T02:40:28.600Z,99.90
2019-01-14T02:42:56.021Z,99.90
2019-01-14T02:45:23.511Z,99.90
2019-01-14T02:47:51.272Z,99.90
2019-01-14T02:50:18.898Z,99.90
2019-01-14T02:52:46.630Z,99.90
2019-01-14T02:55:14.063Z,99.90
2019-01-14T02:57:41.578Z,99.90
2019-01-14T03:00:13.523Z,99.90
2019-01-14T03:02:41.013Z,99.90
2019-01-14T03:05:08.623Z,99.90
2019-01-14T03:07:36.013Z,99.50
2019-01-14T03:10:05.348Z,99.90
2019-01-14T03:12:33.427Z,99.90
2019-01-14T03:15:00.825Z,99.90
2019-01-14T03:17:28.300Z,99.90
2019-01-14T03:19:55.817Z,99.90
2019-01-14T03:22:23.288Z,99.90
2019-01-14T03:24:50.766Z,99.90
2019-01-14T03:27:18.216Z,99.90
2019-01-14T03:29:45.613Z,99.90
2019-01-14T03:32:13.298Z,99.90
2019-01-14T03:34:41.151Z,99.90
2019-01-14T03:37:08.826Z,99.90
2019-01-14T03:39:36.286Z,99.90
2019-01-14T03:42:04.161Z,99.90
2019-01-14T03:44:31.609Z,99.90
2019-01-14T03:46:59.061Z,99.90
2019-01-14T03:49:26.428Z,99.90
2019-01-14T03:51:53.798Z,99.90
2019-01-14T03:54:21.513Z,99.90
2019-01-14T03:56:48.855Z,99.90
2019-01-14T03:59:16.853Z,99.90
2019-01-14T04:01:44.350Z,99.90
2019-01-14T04:04:11.852Z,99.90
2019-01-14T04:06:39.286Z,99.90
2019-01-14T04:09:07.058Z,99.90
2019-01-14T04:11:34.512Z,99.90
2019-01-14T04:14:01.917Z,99.90
2019-01-14T04:16:29.425Z,98.90
2019-01-14T04:18:56.793Z,99.90
2019-01-14T04:21:24.196Z,99.90
2019-01-14T04:23:51.698Z,99.90
2019-01-14T04:26:19.196Z,99.90
2019-01-14T04:28:46.675Z,99.90
2019-01-14T04:31:15.888Z,99.90
2019-01-14T04:33:43.520Z,99.90
2019-01-14T04:36:11.092Z,99.90
2019-01-14T04:38:39.342Z,99.90
2019-01-14T04:41:06.825Z,99.90
2019-01-14T04:43:34.534Z,99.90
2019-01-14T04:46:02.078Z,99.60
2019-01-14T04:48:29.949Z,97.30
2019-01-14T04:50:57.465Z,99.00
2019-01-14T04:53:24.856Z,99.90
2019-01-14T04:55:52.648Z,98.50
2019-01-14T04:58:20.061Z,98.70
2019-01-14T05:00:47.556Z,98.20
2019-01-14T05:03:15.266Z,98.00
2019-01-14T05:05:42.800Z,97.80
2019-01-14T05:08:10.884Z,99.90
2019-01-14T05:10:38.316Z,99.20
2019-01-14T05:13:05.837Z,99.20
2019-01-14T05:15:33.672Z,99.90
2019-01-14T05:18:01.042Z,98.80
2019-01-14T05:20:28.568Z,99.60
2019-01-14T05:23:03.287Z,99.90
2019-01-14T05:25:31.139Z,99.90
2019-01-14T05:27:58.820Z,97.70
2019-01-14T05:30:26.234Z,99.90
2019-01-14T05:32:53.966Z,99.90
2019-01-14T05:35:21.457Z,99.90
2019-01-14T05:37:49.050Z,96.80
2019-01-14T05:40:18.622Z,98.40
2019-01-14T05:42:46.556Z,97.10
2019-01-14T05:45:14.382Z,99.00
2019-01-14T05:47:41.991Z,99.90
2019-01-14T05:50:10.610Z,99.80
2019-01-14T05:52:38.135Z,97.30
2019-01-14T05:55:06.248Z,99.10
2019-01-14T05:57:33.636Z,99.90
2019-01-14T06:00:01.094Z,96.90
2019-01-14T06:02:28.621Z,97.10
2019-01-14T06:04:56.116Z,94.60
2019-01-14T06:07:23.747Z,96.10
2019-01-14T06:09:53.677Z,98.40
2019-01-14T06:12:21.094Z,96.00
2019-01-14T06:14:48.594Z,98.40
2019-01-14T06:17:16.084Z,95.40
2019-01-14T06:19:43.820Z,94.50
2019-01-14T06:22:11.244Z,99.20
2019-01-14T06:24:38.775Z,95.50
2019-01-14T06:27:06.365Z,91.80
2019-01-14T06:29:33.733Z,91.40
2019-01-14T06:32:01.756Z,92.30
2019-01-14T06:34:29.679Z,90.90
2019-01-14T06:36:57.102Z,93.80
2019-01-14T06:39:24.938Z,96.00
2019-01-14T06:41:52.469Z,93.30
2019-01-14T06:44:19.840Z,92.10
2019-01-14T06:46:47.328Z,98.80
2019-01-14T06:49:15.016Z,96.70
2019-01-14T06:51:42.473Z,95.40
2019-01-14T06:54:09.938Z,91.50
2019-01-14T06:56:37.457Z,94.30
2019-01-14T06:59:04.975Z,98.60
2019-01-14T07:01:32.365Z,96.40
2019-01-14T07:04:00.266Z,93.20
2019-01-14T07:06:27.808Z,93.00
2019-01-14T07:08:55.345Z,91.00
2019-01-14T07:11:23.058Z,90.20
2019-01-14T07:13:50.585Z,95.20
2019-01-14T07:16:18.097Z,92.00
2019-01-14T07:18:45.568Z,89.60
2019-01-14T07:21:12.990Z,89.10
2019-01-14T07:23:40.395Z,90.00
2019-01-14T07:26:07.877Z,90.40
2019-01-14T07:28:35.705Z,90.30
2019-01-14T07:31:03.320Z,90.10
2019-01-14T07:33:30.975Z,89.40
2019-01-14T07:35:59.331Z,98.50
2019-01-14T07:38:26.932Z,87.00
2019-01-14T07:40:54.405Z,94.40
2019-01-14T07:43:21.889Z,96.00
2019-01-14T07:45:52.147Z,91.30
2019-01-14T07:48:19.641Z,86.20
2019-01-14T07:50:47.220Z,95.30
2019-01-14T07:53:14.637Z,91.40
2019-01-14T07:55:42.000Z,91.50
2019-01-14T07:58:09.543Z,94.90
2019-01-14T08:00:36.986Z,90.20
2019-01-14T08:03:04.706Z,92.00
2019-01-14T08:05:32.201Z,88.60
2019-01-14T08:08:00.040Z,91.00
2019-01-14T08:10:27.498Z,89.70
2019-01-14T08:12:54.899Z,83.30
2019-01-14T08:15:22.361Z,95.60
2019-01-14T08:17:49.943Z,90.90
2019-01-14T08:20:17.573Z,87.90
2019-01-14T08:22:45.029Z,83.90
2019-01-14T08:25:13.472Z,90.80
2019-01-14T08:27:41.143Z,91.40
2019-01-14T08:30:20.732Z,92.80
2019-01-14T08:32:48.833Z,90.50
2019-01-14T08:35:16.844Z,78.90
2019-01-14T08:37:44.314Z,85.60
2019-01-14T08:40:12.760Z,79.90
2019-01-14T08:42:40.332Z,78.70
2019-01-14T08:45:08.949Z,79.90
2019-01-14T08:47:36.396Z,86.60
2019-01-14T08:50:05.729Z,78.90
2019-01-14T08:52:33.189Z,84.10
2019-01-14T08:55:00.619Z,89.30
2019-01-14T08:57:28.026Z,82.30
2019-01-14T08:59:55.433Z,80.40
2019-01-14T09:02:23.108Z,85.00
2019-01-14T09:04:50.643Z,81.60
2019-01-14T09:07:18.151Z,82.60
2019-01-14T09:09:45.667Z,84.90
2019-01-14T09:12:13.417Z,89.60
2019-01-14T09:14:40.805Z,92.20
2019-01-14T09:17:09.069Z,93.60
2019-01-14T09:19:36.535Z,94.60
2019-01-14T09:22:04.057Z,98.80
2019-01-14T09:24:31.641Z,96.90
2019-01-14T09:26:59.133Z,96.60
2019-01-14T09:29:26.848Z,95.90
2019-01-14T09:31:55.114Z,96.90
2019-01-14T09:34:22.935Z,99.90
2019-01-14T09:36:50.727Z,97.20
2019-01-14T09:39:18.232Z,99.50
2019-01-14T09:41:45.962Z,97.70
2019-01-14T09:44:13.384Z,96.50
2019-01-14T09:46:40.883Z,90.30
2019-01-14T09:49:08.340Z,90.90
2019-01-14T09:51:35.891Z,85.90
2019-01-14T09:54:04.865Z,86.60
2019-01-14T09:56:32.395Z,86.20
2019-01-14T09:58:59.879Z,91.00
2019-01-14T10:01:27.365Z,96.40
2019-01-14T10:03:54.949Z,99.50
2019-01-14T10:06:22.385Z,99.90
2019-01-14T10:08:50.272Z,99.90
2019-01-14T10:11:18.235Z,96.90
2019-01-14T10:13:45.716Z,99.90
2019-01-14T10:16:13.242Z,95.90
2019-01-14T10:18:40.861Z,99.90
2019-01-14T10:21:08.369Z,94.80
2019-01-14T10:23:35.854Z,99.90
2019-01-14T10:26:03.837Z,95.40
2019-01-14T10:28:31.249Z,94.20
2019-01-14T10:30:58.780Z,96.60
2019-01-14T10:33:26.295Z,98.50
2019-01-14T10:35:54.015Z,99.90
2019-01-14T10:38:21.466Z,99.90
2019-01-14T10:40:48.840Z,97.80
2019-01-14T10:43:16.281Z,97.10
2019-01-14T10:45:43.738Z,98.10
2019-01-14T10:48:11.294Z,97.30
2019-01-14T10:50:38.696Z,99.90
2019-01-14T10:53:06.181Z,95.40
2019-01-14T10:55:33.688Z,98.50
2019-01-14T10:58:01.169Z,94.10
2019-01-14T11:00:28.851Z,96.90
2019-01-14T11:02:56.585Z,93.50
2019-01-14T11:05:28.554Z,94.40
2019-01-14T11:07:56.065Z,94.40
2019-01-14T11:10:23.580Z,97.30
2019-01-14T11:12:51.510Z,92.60
2019-01-14T11:15:19.499Z,98.00
2019-01-14T11:17:47.051Z,94.50
2019-01-14T11:20:17.228Z,95.10
2019-01-14T11:22:44.830Z,92.60
2019-01-14T11:25:12.275Z,92.20
2019-01-14T11:27:39.803Z,92.00
2019-01-14T11:30:09.977Z,93.20
2019-01-14T11:32:37.511Z,95.70
2019-01-14T11:35:05.687Z,93.20
2019-01-14T11:37:33.217Z,93.20
2019-01-14T11:40:00.717Z,93.20
2019-01-14T11:42:28.743Z,93.40
2019-01-14T11:44:56.973Z,94.40
2019-01-14T11:47:24.489Z,95.50
2019-01-14T11:49:52.501Z,96.10
2019-01-14T11:52:19.973Z,96.70
2019-01-14T11:54:48.058Z,96.40
2019-01-14T11:57:15.557Z,94.70
2019-01-14T11:59:43.465Z,94.90
2019-01-14T12:02:10.821Z,94.80
2019-01-14T12:04:38.214Z,96.70
2019-01-14T12:07:05.724Z,96.10
2019-01-14T12:09:33.287Z,99.90
2019-01-14T12:12:01.033Z,99.30
2019-01-14T12:14:28.923Z,94.20
2019-01-14T12:16:56.300Z,94.70
2019-01-14T12:19:23.734Z,91.30
2019-01-14T12:21:51.376Z,89.40
2019-01-14T12:24:18.930Z,90.40
2019-01-14T12:26:46.404Z,81.70
2019-01-14T12:29:13.973Z,78.00
2019-01-14T12:31:41.484Z,79.20
2019-01-14T12:34:09.497Z,82.20
2019-01-14T12:36:36.916Z,88.60
2019-01-14T12:39:07.710Z,80.50
2019-01-14T12:41:36.356Z,83.30
2019-01-14T12:44:04.612Z,85.20
2019-01-14T12:46:33.199Z,78.70
2019-01-14T12:49:00.689Z,83.80
2019-01-14T12:51:28.169Z,79.80
2019-01-14T12:53:56.006Z,71.30
2019-01-14T12:56:23.514Z,70.90
2019-01-14T12:58:51.339Z,70.40
2019-01-14T13:01:18.801Z,70.10
2019-01-14T13:03:46.492Z,67.70
2019-01-14T13:06:14.128Z,73.00
2019-01-14T13:08:43.689Z,70.80
2019-01-14T13:11:11.189Z,71.10
2019-01-14T13:13:38.744Z,76.30
2019-01-14T13:16:06.357Z,68.00
2019-01-14T13:18:34.242Z,67.00
2019-01-14T13:21:02.090Z,68.20
2019-01-14T13:23:32.289Z,67.80
2019-01-14T13:25:59.171Z,65.80
2019-01-14T13:28:28.077Z,68.10
2019-01-14T13:30:55.842Z,68.70
2019-01-14T13:33:24.122Z,65.50
2019-01-14T13:35:51.747Z,64.90
2019-01-14T13:38:19.403Z,68.70
2019-01-14T13:40:47.004Z,67.00
2019-01-14T13:43:15.008Z,68.70
2019-01-14T13:45:42.578Z,67.20
2019-01-14T13:48:10.109Z,66.20
2019-01-14T13:50:38.105Z,66.00
2019-01-14T13:53:05.568Z,64.10
2019-01-14T13:55:33.131Z,64.00
2019-01-14T13:58:00.731Z,63.40
2019-01-14T14:00:28.411Z,62.60
2019-01-14T14:02:56.507Z,66.00
2019-01-14T14:05:24.376Z,60.70
2019-01-14T14:07:51.855Z,59.80
2019-01-14T14:10:22.251Z,59.20
2019-01-14T14:12:49.653Z,62.60
2019-01-14T14:15:17.279Z,63.80
2019-01-14T14:17:44.724Z,63.80
2019-01-14T14:20:13.842Z,66.00
2019-01-14T14:22:47.360Z,68.40
2019-01-14T14:25:14.860Z,67.00
2019-01-14T14:27:42.957Z,70.40
2019-01-14T14:30:17.838Z,69.80
2019-01-14T14:32:46.074Z,72.90
2019-01-14T14:35:13.999Z,73.90
2019-01-14T14:37:42.299Z,75.40
2019-01-14T14:40:09.863Z,91.90
2019-01-14T14:42:40.276Z,86.00
2019-01-14T14:45:10.543Z,88.80
2019-01-14T14:47:38.362Z,90.40
2019-01-14T14:50:09.017Z,86.20
2019-01-14T14:52:36.775Z,90.80
2019-01-14T14:55:05.019Z,89.60
2019-01-14T14:57:32.566Z,80.40
2019-01-14T15:00:00.637Z,85.20
2019-01-14T15:02:28.457Z,87.50
2019-01-14T15:04:56.957Z,89.10
2019-01-14T15:07:24.429Z,90.00
2019-01-14T15:09:55.792Z,92.90
2019-01-14T15:12:21.460Z,96.80
2019-01-14T15:14:48.952Z,99.90
2019-01-14T15:17:16.468Z,99.90
2019-01-14T15:19:43.920Z,99.90
2019-01-14T15:22:11.903Z,99.90
2019-01-14T15:24:39.618Z,99.90
2019-01-14T15:27:07.067Z,99.90
2019-01-14T15:29:34.545Z,99.90
2019-01-14T15:32:02.017Z,99.90
2019-01-14T15:34:29.768Z,99.90
2019-01-14T15:36:57.244Z,99.90
2019-01-14T15:39:25.016Z,99.90
2019-01-14T15:41:52.726Z,99.90
2019-01-14T15:44:21.004Z,99.90
2019-01-14T15:46:49.441Z,99.90
2019-01-14T15:49:17.210Z,99.90
2019-01-14T15:52:00.650Z,99.90
2019-01-14T15:54:32.901Z,99.90
2019-01-14T15:57:01.003Z,99.90
2019-01-14T15:59:32.964Z,99.90
2019-01-14T16:02:01.035Z,99.90
2019-01-14T16:04:41.814Z,99.90
2019-01-14T16:07:09.938Z,99.90
2019-01-14T16:09:38.035Z,99.90
2019-01-14T16:12:05.803Z,99.90
2019-01-14T16:14:44.137Z,99.90
2019-01-14T16:17:15.341Z,99.90
2019-01-14T16:20:07.294Z,99.90
2019-01-14T16:23:00.843Z,99.90
2019-01-14T16:25:32.333Z,99.90
2019-01-14T16:28:09.296Z,99.90
2019-01-14T16:30:38.187Z,99.90
2019-01-14T16:33:06.067Z,99.90
2019-01-14T16:35:34.301Z,99.90
2019-01-14T16:38:02.705Z,99.90
2019-01-14T16:40:30.667Z,99.90
2019-01-14T16:42:58.419Z,99.90
2019-01-14T16:45:28.175Z,99.90
2019-01-14T16:47:55.954Z,99.90
2019-01-14T16:50:25.748Z,99.90
2019-01-14T16:53:02.195Z,99.90
2019-01-14T16:55:45.500Z,99.90
2019-01-14T16:58:14.479Z,99.90
2019-01-14T17:00:42.535Z,99.90
2019-01-14T17:03:10.761Z,99.90
2019-01-14T17:05:39.723Z,99.90
2019-01-14T17:08:11.140Z,99.90
2019-01-14T17:10:39.203Z,99.90
2019-01-14T17:13:07.431Z,99.90
2019-01-14T17:15:35.666Z,99.90
2019-01-14T17:18:03.766Z,99.90
2019-01-14T17:20:32.704Z,99.90
2019-01-14T17:23:01.619Z,99.90
2019-01-14T17:25:30.793Z,99.90
2019-01-14T17:28:03.444Z,99.90
2019-01-14T17:30:31.570Z,99.90
2019-01-14T17:33:00.748Z,99.90
2019-01-14T17:35:38.777Z,99.90
2019-01-14T17:38:08.679Z,99.90
2019-01-14T17:40:39.754Z,99.90
2019-01-14T17:43:07.748Z,99.90
2019-01-14T17:45:35.496Z,99.90
2019-01-14T17:48:03.846Z,99.90
2019-01-14T17:50:31.452Z,99.90
2019-01-14T17:53:13.452Z,99.90
2019-01-14T17:55:41.458Z,99.90
2019-01-14T18:05:59.634Z,99.90
2019-01-14T18:08:44.420Z,99.90
2019-01-14T18:12:04.139Z,99.90
2019-01-14T18:18:37.522Z,99.90
2019-01-14T18:21:13.982Z,99.90
2019-01-14T18:24:09.896Z,99.90
2019-01-14T18:26:41.869Z,99.90
2019-01-14T18:29:12.188Z,99.90
2019-01-14T18:31:40.281Z,99.90
2019-01-14T18:34:09.101Z,99.90
2019-01-14T18:36:36.750Z,99.90
2019-01-14T18:39:08.269Z,99.90
2019-01-14T18:41:40.835Z,99.90
2019-01-14T18:44:09.405Z,99.90
2019-01-14T18:46:38.987Z,99.90
2019-01-14T18:49:09.812Z,99.90
2019-01-14T18:51:38.040Z,99.90
2019-01-14T18:54:08.556Z,99.90
2019-01-14T18:56:39.651Z,99.90
2019-01-14T18:59:08.447Z,99.90
2019-01-14T19:01:41.333Z,99.90
2019-01-14T19:04:11.035Z,99.90
2019-01-14T19:06:42.312Z,99.90
2019-01-14T19:09:11.493Z,99.90
2019-01-14T19:11:40.612Z,99.90
2019-01-14T19:14:10.560Z,99.90
2019-01-14T19:16:38.563Z,99.90
2019-01-14T19:19:07.344Z,99.90
2019-01-14T19:21:36.170Z,99.90
2019-01-14T19:24:07.115Z,99.90
2019-01-14T19:26:39.759Z,99.90
2019-01-14T19:29:13.928Z,99.90
2019-01-14T19:31:43.122Z,99.90
2019-01-14T19:34:10.620Z,99.90
2019-01-14T19:36:39.950Z,99.90
2019-01-14T19:39:08.905Z,99.90
2019-01-14T19:41:36.626Z,99.90
2019-01-14T19:44:07.065Z,99.90
2019-01-14T19:46:48.507Z,99.90
2019-01-14T19:50:05.605Z,99.90
2019-01-14T19:53:07.518Z,99.90
2019-01-14T19:55:47.625Z,99.90
2019-01-14T19:58:37.445Z,98.80
2019-01-14T20:01:40.249Z,99.90
2019-01-14T20:05:03.854Z,98.00
2019-01-14T20:10:45.426Z,99.90
2019-01-14T20:17:59.860Z,99.90
2019-01-14T20:20:27.919Z,99.90
2019-01-14T20:22:55.981Z,99.90
2019-01-14T20:25:34.540Z,99.90
2019-01-14T20:28:12.288Z,99.90
2019-01-14T20:30:46.537Z,99.90
2019-01-14T20:33:40.625Z,99.90
2019-01-14T20:36:27.914Z,99.90
2019-01-14T20:39:17.159Z,99.90
2019-01-14T20:41:45.353Z,99.90
2019-01-14T20:44:13.346Z,99.40
2019-01-14T20:46:41.489Z,99.90
2019-01-14T20:49:09.201Z,99.40
2019-01-14T20:51:36.869Z,99.90
2019-01-14T20:54:04.545Z,99.90
2019-01-14T20:56:33.126Z,99.90
2019-01-14T20:59:00.766Z,97.70
2019-01-14T21:01:29.219Z,97.50
2019-01-14T21:03:57.226Z,99.90
2019-01-14T21:06:26.449Z,99.90
2019-01-14T21:08:54.150Z,99.90
2019-01-14T21:11:24.104Z,99.90
2019-01-14T21:13:51.378Z,97.50
2019-01-14T21:16:18.926Z,99.90
2019-01-14T21:18:46.619Z,97.40
2019-01-14T21:21:14.449Z,93.90
2019-01-14T21:23:42.018Z,93.50
2019-01-14T21:26:09.532Z,92.40
2019-01-14T21:29:01.086Z,98.70
2019-01-14T21:31:31.073Z,96.10
2019-01-14T21:34:03.105Z,93.70
2019-01-14T21:36:30.701Z,94.30
2019-01-14T21:38:59.137Z,95.50
2019-01-14T21:41:31.268Z,92.90
2019-01-14T21:43:56.264Z,94.20
2019-01-14T21:46:25.029Z,99.90
2019-01-14T21:48:53.459Z,99.90
2019-01-14T21:51:21.140Z,99.90
2019-01-14T21:53:49.369Z,99.90
2019-01-14T21:56:18.718Z,99.90
2019-01-14T21:58:46.672Z,99.30
2019-01-14T22:01:17.363Z,99.80
2019-01-14T22:03:45.325Z,99.90
2019-01-14T22:06:13.366Z,96.20
2019-01-14T22:08:41.155Z,95.60
2019-01-14T22:11:10.104Z,99.90
2019-01-14T22:13:38.026Z,99.20
2019-01-14T22:16:05.702Z,97.80
2019-01-14T22:18:33.143Z,99.90
2019-01-14T22:21:01.035Z,97.20
2019-01-14T22:23:28.831Z,99.90
2019-01-14T22:25:57.075Z,93.90
2019-01-14T22:28:47.070Z,94.80
2019-01-14T22:31:14.908Z,99.90
2019-01-14T22:33:43.829Z,99.90
2019-01-14T22:36:11.257Z,94.00
2019-01-14T22:38:38.634Z,96.60
2019-01-14T22:41:06.246Z,97.70
2019-01-14T22:43:33.909Z,97.60
2019-01-14T22:46:04.263Z,96.00
2019-01-14T22:48:31.773Z,97.10
2019-01-14T22:50:59.423Z,97.00
2019-01-14T22:53:26.823Z,99.90
2019-01-14T22:55:54.767Z,96.30
2019-01-14T22:58:22.812Z,94.60
2019-01-14T23:01:14.591Z,91.40
2019-01-14T23:03:44.446Z,91.50
2019-01-14T23:06:12.049Z,91.30
2019-01-14T23:08:39.994Z,93.00
2019-01-14T23:11:10.139Z,94.40
2019-01-14T23:13:38.143Z,96.50
2019-01-14T23:16:05.685Z,98.80
2019-01-14T23:18:36.176Z,98.60
2019-01-14T23:21:04.724Z,99.90
2019-01-14T23:23:32.816Z,99.90
2019-01-14T23:26:00.333Z,99.90
2019-01-14T23:28:27.850Z,97.50
2019-01-14T23:30:55.342Z,99.90
2019-01-14T23:33:22.759Z,99.90
2019-01-14T23:35:50.266Z,99.90
2019-01-14T23:38:18.130Z,99.90
2019-01-14T23:40:45.497Z,99.90
2019-01-14T23:43:12.870Z,99.90
2019-01-14T23:45:40.480Z,99.90
2019-01-14T23:48:08.324Z,99.90
2019-01-14T23:50:35.731Z,99.90
2019-01-14T23:53:03.576Z,99.90
2019-01-14T23:55:31.451Z,99.90
2019-01-14T23:57:59.491Z,99.90
